FLI1411 EKVG-BIKF
Flight info
| Callsign | FLI1411 |
|---|---|
| Flight time | 1h 12m |
| Altitude | 38000 |
| Route | MY DCT ING DCT NASBU NASBU4K |
| Aircraft | A320/M-SDE3FGHIRWY/LB1 |
Departure
| Time | 2026-04-27 09:54 |
|---|---|
| Airport | Vágar Airport (EKVG) |
Arrival
| Time | 2026-04-27 11:07 |
|---|---|
| Airport | Keflavik International Airport (BIKF) |
| Time | Latitude | Longitude | Altitude | Speed | Heading |
|---|---|---|---|---|---|
| 2026-04-27 09:32 | 62.06730 | -7.28132 | 279 ft | 0 kts | 72° |
| 2026-04-27 09:48 | 62.06730 | -7.28131 | 279 ft | 1 kts | 72° |
| 2026-04-27 09:48 | 62.06728 | -7.28105 | 281 ft | 2 kts | 135° |
| 2026-04-27 09:48 | 62.06699 | -7.28105 | 279 ft | 6 kts | 177° |
| 2026-04-27 09:49 | 62.06645 | -7.28094 | 279 ft | 9 kts | 174° |
| 2026-04-27 09:49 | 62.06573 | -7.28092 | 283 ft | 7 kts | 191° |
| 2026-04-27 09:49 | 62.06569 | -7.28094 | 282 ft | 0 kts | 193° |
| 2026-04-27 09:51 | 62.06539 | -7.28115 | 283 ft | 8 kts | 201° |
| 2026-04-27 09:51 | 62.06479 | -7.28151 | 281 ft | 8 kts | 170° |
| 2026-04-27 09:51 | 62.06435 | -7.28024 | 282 ft | 13 kts | 118° |
| 2026-04-27 09:51 | 62.06385 | -7.27825 | 285 ft | 17 kts | 118° |
| 2026-04-27 09:52 | 62.06321 | -7.27567 | 290 ft | 22 kts | 118° |
| 2026-04-27 09:52 | 62.06236 | -7.27225 | 282 ft | 30 kts | 118° |
| 2026-04-27 09:52 | 62.06130 | -7.26800 | 266 ft | 32 kts | 117° |
| 2026-04-27 09:52 | 62.06033 | -7.26409 | 252 ft | 27 kts | 118° |
| 2026-04-27 09:53 | 62.05960 | -7.26114 | 242 ft | 17 kts | 118° |
| 2026-04-27 09:53 | 62.05929 | -7.26012 | 241 ft | 6 kts | 68° |
| 2026-04-27 09:53 | 62.05950 | -7.26023 | 241 ft | 3 kts | 294° |
| 2026-04-27 09:53 | 62.05958 | -7.26106 | 242 ft | 8 kts | 296° |
| 2026-04-27 09:54 | 62.06021 | -7.26362 | 250 ft | 52 kts | 297° |
| 2026-04-27 09:54 | 62.06336 | -7.27626 | 287 ft | 139 kts | 298° |
| 2026-04-27 09:54 | 62.06843 | -7.29737 | 728 ft | 170 kts | 291° |
| 2026-04-27 09:54 | 62.07241 | -7.32189 | 1709 ft | 176 kts | 284° |
| 2026-04-27 09:55 | 62.07585 | -7.34728 | 2486 ft | 188 kts | 283° |
| 2026-04-27 09:55 | 62.07960 | -7.37615 | 2847 ft | 214 kts | 283° |
| 2026-04-27 09:55 | 62.08847 | -7.44389 | 3984 ft | 255 kts | 284° |
| 2026-04-27 09:56 | 62.09167 | -7.46871 | 4631 ft | 258 kts | 284° |
| 2026-04-27 09:56 | 62.09639 | -7.50572 | 5607 ft | 262 kts | 284° |
| 2026-04-27 09:56 | 62.10126 | -7.54381 | 6602 ft | 266 kts | 284° |
| 2026-04-27 09:56 | 62.10619 | -7.58212 | 7522 ft | 269 kts | 285° |
| 2026-04-27 09:57 | 62.11389 | -7.61880 | 8415 ft | 275 kts | 300° |
| 2026-04-27 09:57 | 62.12320 | -7.65443 | 9358 ft | 278 kts | 296° |
| 2026-04-27 09:57 | 62.13199 | -7.69177 | 10299 ft | 281 kts | 295° |
| 2026-04-27 09:57 | 62.14071 | -7.73046 | 10796 ft | 300 kts | 295° |
| 2026-04-27 09:58 | 62.14998 | -7.77202 | 11277 ft | 316 kts | 295° |
| 2026-04-27 09:58 | 62.15956 | -7.81492 | 12063 ft | 321 kts | 295° |
| 2026-04-27 09:58 | 62.16917 | -7.85754 | 12891 ft | 324 kts | 296° |
| 2026-04-27 09:58 | 62.17913 | -7.90131 | 13737 ft | 327 kts | 296° |
| 2026-04-27 09:59 | 62.18918 | -7.94522 | 14510 ft | 330 kts | 296° |
| 2026-04-27 09:59 | 62.19935 | -7.98959 | 15264 ft | 332 kts | 296° |
| 2026-04-27 09:59 | 62.20953 | -8.03417 | 16040 ft | 333 kts | 297° |
| 2026-04-27 09:59 | 62.21967 | -8.07865 | 16805 ft | 334 kts | 297° |
| 2026-04-27 10:00 | 62.22994 | -8.12382 | 17582 ft | 336 kts | 297° |
| 2026-04-27 10:00 | 62.24010 | -8.16853 | 18209 ft | 342 kts | 298° |
| 2026-04-27 10:00 | 62.25085 | -8.21596 | 18342 ft | 361 kts | 298° |
| 2026-04-27 10:00 | 62.26208 | -8.26580 | 18471 ft | 378 kts | 297° |
| 2026-04-27 10:01 | 62.27365 | -8.31731 | 18623 ft | 392 kts | 297° |
| 2026-04-27 10:01 | 62.28565 | -8.37100 | 18743 ft | 405 kts | 297° |
| 2026-04-27 10:01 | 62.29801 | -8.42645 | 18951 ft | 413 kts | 297° |
| 2026-04-27 10:01 | 62.31037 | -8.48202 | 19284 ft | 417 kts | 297° |
| 2026-04-27 10:02 | 62.32299 | -8.53879 | 19658 ft | 419 kts | 297° |
| 2026-04-27 10:02 | 62.33562 | -8.59565 | 20025 ft | 421 kts | 297° |
| 2026-04-27 10:02 | 62.34826 | -8.65279 | 20374 ft | 423 kts | 297° |
| 2026-04-27 10:02 | 62.36074 | -8.70945 | 20709 ft | 425 kts | 297° |
| 2026-04-27 10:03 | 62.37345 | -8.76733 | 21033 ft | 427 kts | 297° |
| 2026-04-27 10:03 | 62.38621 | -8.82556 | 21351 ft | 429 kts | 296° |
| 2026-04-27 10:03 | 62.39897 | -8.88385 | 21717 ft | 429 kts | 296° |
| 2026-04-27 10:03 | 62.41174 | -8.94227 | 22051 ft | 431 kts | 296° |
| 2026-04-27 10:04 | 62.42437 | -9.00028 | 22356 ft | 432 kts | 296° |
| 2026-04-27 10:04 | 62.43716 | -9.05932 | 22648 ft | 433 kts | 296° |
| 2026-04-27 10:04 | 62.44996 | -9.11853 | 22937 ft | 435 kts | 296° |
| 2026-04-27 10:04 | 62.46277 | -9.17801 | 23213 ft | 436 kts | 296° |
| 2026-04-27 10:05 | 62.47545 | -9.23699 | 23472 ft | 438 kts | 296° |
| 2026-04-27 10:05 | 62.48831 | -9.29692 | 23718 ft | 439 kts | 296° |
| 2026-04-27 10:05 | 62.50119 | -9.35721 | 23926 ft | 440 kts | 296° |
| 2026-04-27 10:05 | 62.51390 | -9.41683 | 24102 ft | 441 kts | 296° |
| 2026-04-27 10:06 | 62.52678 | -9.47744 | 24271 ft | 442 kts | 296° |
| 2026-04-27 10:06 | 62.53961 | -9.53787 | 24426 ft | 442 kts | 296° |
| 2026-04-27 10:06 | 62.55242 | -9.59841 | 24577 ft | 442 kts | 296° |
| 2026-04-27 10:06 | 62.56526 | -9.65931 | 24706 ft | 442 kts | 295° |
| 2026-04-27 10:07 | 62.57800 | -9.72013 | 24846 ft | 441 kts | 295° |
| 2026-04-27 10:07 | 62.59069 | -9.78078 | 24970 ft | 441 kts | 295° |
| 2026-04-27 10:07 | 62.60323 | -9.84065 | 25101 ft | 440 kts | 295° |
| 2026-04-27 10:07 | 62.61586 | -9.90110 | 25245 ft | 440 kts | 295° |
| 2026-04-27 10:08 | 62.62859 | -9.96217 | 25398 ft | 439 kts | 295° |
| 2026-04-27 10:08 | 62.64114 | -10.02278 | 25559 ft | 438 kts | 295° |
| 2026-04-27 10:08 | 62.65348 | -10.08246 | 25702 ft | 438 kts | 295° |
| 2026-04-27 10:08 | 62.66595 | -10.14315 | 25855 ft | 437 kts | 295° |
| 2026-04-27 10:09 | 62.67838 | -10.20372 | 26024 ft | 436 kts | 295° |
| 2026-04-27 10:09 | 62.69072 | -10.26406 | 26197 ft | 436 kts | 295° |
| 2026-04-27 10:09 | 62.70290 | -10.32367 | 26374 ft | 435 kts | 295° |
| 2026-04-27 10:09 | 62.71521 | -10.38404 | 26560 ft | 434 kts | 295° |
| 2026-04-27 10:10 | 62.72747 | -10.44439 | 26715 ft | 433 kts | 295° |
| 2026-04-27 10:10 | 62.73959 | -10.50460 | 26951 ft | 431 kts | 294° |
| 2026-04-27 10:10 | 62.75148 | -10.56390 | 27153 ft | 430 kts | 294° |
| 2026-04-27 10:10 | 62.76347 | -10.62373 | 27359 ft | 429 kts | 294° |
| 2026-04-27 10:11 | 62.77554 | -10.68391 | 27563 ft | 428 kts | 294° |
| 2026-04-27 10:11 | 62.78735 | -10.74285 | 27768 ft | 427 kts | 294° |
| 2026-04-27 10:11 | 62.79926 | -10.80252 | 27977 ft | 426 kts | 294° |
| 2026-04-27 10:11 | 62.81107 | -10.86164 | 28194 ft | 425 kts | 294° |
| 2026-04-27 10:12 | 62.82288 | -10.92089 | 28426 ft | 424 kts | 294° |
| 2026-04-27 10:12 | 62.83464 | -10.98017 | 28645 ft | 423 kts | 294° |
| 2026-04-27 10:12 | 62.84629 | -11.03942 | 28874 ft | 423 kts | 294° |
| 2026-04-27 10:12 | 62.85774 | -11.09787 | 29097 ft | 422 kts | 294° |
| 2026-04-27 10:13 | 62.86933 | -11.15693 | 29328 ft | 421 kts | 294° |
| 2026-04-27 10:13 | 62.88103 | -11.21658 | 29575 ft | 420 kts | 294° |
| 2026-04-27 10:13 | 62.89254 | -11.27546 | 29797 ft | 419 kts | 294° |
| 2026-04-27 10:13 | 62.90383 | -11.33350 | 30047 ft | 418 kts | 293° |
| 2026-04-27 10:14 | 62.91519 | -11.39227 | 30289 ft | 417 kts | 293° |
| 2026-04-27 10:14 | 62.92646 | -11.45077 | 30507 ft | 416 kts | 293° |
| 2026-04-27 10:14 | 62.93770 | -11.50945 | 30730 ft | 415 kts | 293° |
| 2026-04-27 10:14 | 62.94886 | -11.56783 | 30974 ft | 413 kts | 293° |
| 2026-04-27 10:15 | 62.96002 | -11.62623 | 31240 ft | 412 kts | 293° |
| 2026-04-27 10:15 | 62.97106 | -11.68416 | 31493 ft | 410 kts | 293° |
| 2026-04-27 10:15 | 62.98192 | -11.74127 | 31747 ft | 408 kts | 293° |
| 2026-04-27 10:15 | 62.99287 | -11.79884 | 31978 ft | 406 kts | 293° |
| 2026-04-27 10:16 | 63.00380 | -11.85632 | 32220 ft | 405 kts | 293° |
| 2026-04-27 10:16 | 63.01460 | -11.91346 | 32474 ft | 403 kts | 293° |
| 2026-04-27 10:16 | 63.02529 | -11.97026 | 32724 ft | 402 kts | 293° |
| 2026-04-27 10:16 | 63.03603 | -12.02746 | 32974 ft | 400 kts | 293° |
| 2026-04-27 10:17 | 63.04659 | -12.08380 | 33226 ft | 399 kts | 293° |
| 2026-04-27 10:17 | 63.05711 | -12.14020 | 33432 ft | 397 kts | 292° |
| 2026-04-27 10:17 | 63.06770 | -12.19702 | 33667 ft | 397 kts | 292° |
| 2026-04-27 10:17 | 63.07814 | -12.25324 | 33892 ft | 396 kts | 292° |
| 2026-04-27 10:18 | 63.08856 | -12.30975 | 34129 ft | 395 kts | 292° |
| 2026-04-27 10:18 | 63.09879 | -12.36534 | 34353 ft | 394 kts | 292° |
| 2026-04-27 10:18 | 63.10911 | -12.42147 | 34545 ft | 394 kts | 292° |
| 2026-04-27 10:18 | 63.11931 | -12.47700 | 34733 ft | 394 kts | 292° |
| 2026-04-27 10:19 | 63.12963 | -12.53329 | 34914 ft | 394 kts | 292° |
| 2026-04-27 10:19 | 63.13989 | -12.58950 | 35103 ft | 394 kts | 292° |
| 2026-04-27 10:19 | 63.15012 | -12.64590 | 35279 ft | 394 kts | 292° |
| 2026-04-27 10:19 | 63.16035 | -12.70249 | 35453 ft | 395 kts | 292° |
| 2026-04-27 10:20 | 63.17041 | -12.75823 | 35640 ft | 395 kts | 292° |
| 2026-04-27 10:20 | 63.18060 | -12.81471 | 35834 ft | 394 kts | 291° |
| 2026-04-27 10:20 | 63.19075 | -12.87119 | 36022 ft | 393 kts | 291° |
| 2026-04-27 10:20 | 63.20085 | -12.92741 | 36190 ft | 393 kts | 291° |
| 2026-04-27 10:21 | 63.21094 | -12.98388 | 36331 ft | 393 kts | 291° |
| 2026-04-27 10:21 | 63.22099 | -13.04047 | 36507 ft | 393 kts | 291° |
| 2026-04-27 10:21 | 63.23083 | -13.09605 | 36664 ft | 392 kts | 291° |
| 2026-04-27 10:21 | 63.24082 | -13.15261 | 36827 ft | 392 kts | 291° |
| 2026-04-27 10:22 | 63.25072 | -13.20867 | 36983 ft | 392 kts | 291° |
| 2026-04-27 10:22 | 63.26077 | -13.26570 | 37144 ft | 391 kts | 291° |
| 2026-04-27 10:22 | 63.27061 | -13.32170 | 37273 ft | 391 kts | 291° |
| 2026-04-27 10:22 | 63.28048 | -13.37787 | 37418 ft | 391 kts | 291° |
| 2026-04-27 10:23 | 63.29040 | -13.43452 | 37560 ft | 391 kts | 290° |
| 2026-04-27 10:23 | 63.30023 | -13.49095 | 37707 ft | 391 kts | 290° |
| 2026-04-27 10:23 | 63.31001 | -13.54732 | 37837 ft | 391 kts | 290° |
| 2026-04-27 10:23 | 63.31969 | -13.60333 | 37975 ft | 390 kts | 290° |
| 2026-04-27 10:24 | 63.32935 | -13.65953 | 38139 ft | 390 kts | 290° |
| 2026-04-27 10:24 | 63.33906 | -13.71609 | 38179 ft | 390 kts | 290° |
| 2026-04-27 10:24 | 63.35842 | -13.82916 | 38174 ft | 390 kts | 290° |
| 2026-04-27 10:25 | 63.37762 | -13.94220 | 38182 ft | 388 kts | 289° |
| 2026-04-27 10:25 | 63.39656 | -14.05384 | 38166 ft | 387 kts | 289° |
| 2026-04-27 10:26 | 63.41550 | -14.16642 | 38164 ft | 387 kts | 289° |
| 2026-04-27 10:26 | 63.43439 | -14.27940 | 38163 ft | 387 kts | 289° |
| 2026-04-27 10:27 | 63.45316 | -14.39244 | 38165 ft | 387 kts | 289° |
| 2026-04-27 10:27 | 63.47176 | -14.50521 | 38167 ft | 388 kts | 289° |
| 2026-04-27 10:28 | 63.49040 | -14.61848 | 38157 ft | 388 kts | 289° |
| 2026-04-27 10:28 | 63.50897 | -14.73201 | 38151 ft | 388 kts | 288° |
| 2026-04-27 10:29 | 63.52724 | -14.84510 | 38149 ft | 388 kts | 288° |
| 2026-04-27 10:29 | 63.54567 | -14.95984 | 38115 ft | 391 kts | 288° |
| 2026-04-27 10:30 | 63.56417 | -15.07531 | 38112 ft | 392 kts | 288° |
| 2026-04-27 10:30 | 63.58252 | -15.19020 | 38128 ft | 393 kts | 287° |
| 2026-04-27 10:31 | 63.60089 | -15.30639 | 38124 ft | 395 kts | 287° |
| 2026-04-27 10:31 | 63.61916 | -15.42266 | 38124 ft | 395 kts | 287° |
| 2026-04-27 10:32 | 63.63740 | -15.53976 | 38122 ft | 396 kts | 287° |
| 2026-04-27 10:32 | 63.65553 | -15.65641 | 38125 ft | 397 kts | 286° |
| 2026-04-27 10:33 | 63.67373 | -15.77419 | 38116 ft | 398 kts | 286° |
| 2026-04-27 10:33 | 63.69178 | -15.89193 | 38117 ft | 398 kts | 286° |
| 2026-04-27 10:34 | 63.70971 | -16.00984 | 38116 ft | 399 kts | 286° |
| 2026-04-27 10:34 | 63.72459 | -16.10845 | 38117 ft | 399 kts | 286° |
| 2026-04-27 10:35 | 63.74241 | -16.22728 | 38127 ft | 398 kts | 286° |
| 2026-04-27 10:35 | 63.76006 | -16.34549 | 38140 ft | 396 kts | 286° |
| 2026-04-27 10:36 | 63.77756 | -16.46371 | 38140 ft | 394 kts | 285° |
| 2026-04-27 10:36 | 63.79471 | -16.58086 | 38143 ft | 393 kts | 285° |
| 2026-04-27 10:37 | 63.80632 | -16.70054 | 38132 ft | 389 kts | 275° |
| 2026-04-27 10:37 | 63.81247 | -16.82247 | 38129 ft | 388 kts | 275° |
| 2026-04-27 10:38 | 63.81855 | -16.94356 | 38128 ft | 388 kts | 275° |
| 2026-04-27 10:38 | 63.82459 | -17.06546 | 38114 ft | 388 kts | 275° |
| 2026-04-27 10:39 | 63.83047 | -17.18661 | 38112 ft | 388 kts | 275° |
| 2026-04-27 10:39 | 63.83626 | -17.30851 | 38114 ft | 388 kts | 275° |
| 2026-04-27 10:40 | 63.84191 | -17.42982 | 38107 ft | 388 kts | 274° |
| 2026-04-27 10:40 | 63.84739 | -17.55169 | 38107 ft | 388 kts | 274° |
| 2026-04-27 10:41 | 63.85284 | -17.67287 | 38101 ft | 387 kts | 274° |
| 2026-04-27 10:41 | 63.85825 | -17.79432 | 38083 ft | 386 kts | 274° |
| 2026-04-27 10:42 | 63.86348 | -17.91567 | 38090 ft | 386 kts | 274° |
| 2026-04-27 10:42 | 63.86860 | -18.03657 | 38058 ft | 388 kts | 273° |
| 2026-04-27 10:43 | 63.87361 | -18.15870 | 38031 ft | 389 kts | 273° |
| 2026-04-27 10:43 | 63.87861 | -18.28175 | 38035 ft | 390 kts | 272° |
| 2026-04-27 10:44 | 63.88343 | -18.40393 | 38024 ft | 391 kts | 272° |
| 2026-04-27 10:44 | 63.88824 | -18.52742 | 38026 ft | 392 kts | 272° |
| 2026-04-27 10:45 | 63.89294 | -18.65005 | 38034 ft | 392 kts | 272° |
| 2026-04-27 10:45 | 63.89758 | -18.77420 | 38013 ft | 393 kts | 272° |
| 2026-04-27 10:46 | 63.90206 | -18.89767 | 38006 ft | 392 kts | 272° |
| 2026-04-27 10:46 | 63.90638 | -19.02052 | 38010 ft | 392 kts | 272° |
| 2026-04-27 10:47 | 63.91068 | -19.14458 | 37998 ft | 393 kts | 271° |
| 2026-04-27 10:47 | 63.91490 | -19.26867 | 37989 ft | 394 kts | 271° |
| 2026-04-27 10:48 | 63.91899 | -19.39221 | 37988 ft | 395 kts | 271° |
| 2026-04-27 10:48 | 63.92299 | -19.51709 | 37968 ft | 395 kts | 271° |
| 2026-04-27 10:49 | 63.92686 | -19.64213 | 37971 ft | 396 kts | 271° |
| 2026-04-27 10:49 | 63.93059 | -19.76648 | 37964 ft | 395 kts | 271° |
| 2026-04-27 10:50 | 63.93421 | -19.89128 | 38011 ft | 395 kts | 270° |
| 2026-04-27 10:50 | 63.93779 | -20.01608 | 37972 ft | 394 kts | 269° |
| 2026-04-27 10:51 | 63.94125 | -20.13961 | 37958 ft | 393 kts | 269° |
| 2026-04-27 10:51 | 63.94458 | -20.26408 | 37958 ft | 394 kts | 269° |
| 2026-04-27 10:52 | 63.94778 | -20.38792 | 37948 ft | 394 kts | 269° |
| 2026-04-27 10:52 | 63.95115 | -20.51257 | 37943 ft | 394 kts | 269° |
| 2026-04-27 10:53 | 63.95594 | -20.69970 | 37908 ft | 394 kts | 269° |
| 2026-04-27 10:53 | 63.95748 | -20.76169 | 36797 ft | 391 kts | 269° |
| 2026-04-27 10:54 | 63.95898 | -20.82341 | 35222 ft | 395 kts | 267° |
| 2026-04-27 10:54 | 63.96046 | -20.88643 | 33603 ft | 400 kts | 267° |
| 2026-04-27 10:54 | 63.96192 | -20.94943 | 31818 ft | 403 kts | 267° |
| 2026-04-27 10:54 | 63.96339 | -21.01338 | 30022 ft | 406 kts | 267° |
| 2026-04-27 10:55 | 63.96484 | -21.07806 | 28007 ft | 408 kts | 267° |
| 2026-04-27 10:55 | 63.96631 | -21.14263 | 26111 ft | 409 kts | 268° |
| 2026-04-27 10:55 | 63.96778 | -21.20700 | 24345 ft | 409 kts | 268° |
| 2026-04-27 10:55 | 63.96923 | -21.27191 | 22495 ft | 408 kts | 268° |
| 2026-04-27 10:56 | 63.97058 | -21.33598 | 20607 ft | 408 kts | 268° |
| 2026-04-27 10:56 | 63.97189 | -21.40041 | 18921 ft | 405 kts | 268° |
| 2026-04-27 10:56 | 63.97511 | -21.46399 | 17776 ft | 399 kts | 277° |
| 2026-04-27 10:56 | 63.98403 | -21.52217 | 17390 ft | 377 kts | 288° |
| 2026-04-27 10:57 | 63.99459 | -21.57403 | 17190 ft | 347 kts | 287° |
| 2026-04-27 10:57 | 64.00428 | -21.62166 | 17084 ft | 320 kts | 287° |
| 2026-04-27 10:57 | 64.01335 | -21.66648 | 16637 ft | 304 kts | 285° |
| 2026-04-27 10:57 | 64.02210 | -21.71040 | 15992 ft | 298 kts | 284° |
| 2026-04-27 10:58 | 64.03054 | -21.75316 | 15284 ft | 295 kts | 284° |
| 2026-04-27 10:58 | 64.03894 | -21.79573 | 14584 ft | 292 kts | 285° |
| 2026-04-27 10:58 | 64.04726 | -21.83792 | 13920 ft | 290 kts | 285° |
| 2026-04-27 10:58 | 64.05547 | -21.87962 | 13277 ft | 288 kts | 285° |
| 2026-04-27 10:59 | 64.06366 | -21.92118 | 12669 ft | 285 kts | 285° |
| 2026-04-27 10:59 | 64.07173 | -21.96191 | 12130 ft | 284 kts | 285° |
| 2026-04-27 10:59 | 64.07987 | -22.00288 | 11515 ft | 281 kts | 285° |
| 2026-04-27 11:00 | 64.09580 | -22.08329 | 10134 ft | 275 kts | 284° |
| 2026-04-27 11:00 | 64.10360 | -22.12285 | 9430 ft | 272 kts | 284° |
| 2026-04-27 11:00 | 64.11100 | -22.16273 | 8628 ft | 265 kts | 277° |
| 2026-04-27 11:00 | 64.11396 | -22.20315 | 7828 ft | 258 kts | 269° |
| 2026-04-27 11:01 | 64.11613 | -22.24396 | 7012 ft | 260 kts | 269° |
| 2026-04-27 11:01 | 64.11831 | -22.28506 | 6223 ft | 261 kts | 269° |
| 2026-04-27 11:01 | 64.12050 | -22.32680 | 5378 ft | 262 kts | 270° |
| 2026-04-27 11:01 | 64.12264 | -22.36815 | 4517 ft | 265 kts | 270° |
| 2026-04-27 11:02 | 64.12478 | -22.41010 | 3793 ft | 262 kts | 271° |
| 2026-04-27 11:02 | 64.12686 | -22.45015 | 3535 ft | 245 kts | 271° |
| 2026-04-27 11:02 | 64.12886 | -22.48786 | 3398 ft | 230 kts | 270° |
| 2026-04-27 11:02 | 64.12977 | -22.52275 | 3278 ft | 209 kts | 256° |
| 2026-04-27 11:03 | 64.12622 | -22.55350 | 3067 ft | 195 kts | 238° |
| 2026-04-27 11:03 | 64.11864 | -22.57868 | 2745 ft | 190 kts | 219° |
| 2026-04-27 11:03 | 64.10813 | -22.59611 | 2488 ft | 181 kts | 202° |
| 2026-04-27 11:03 | 64.09680 | -22.60432 | 2277 ft | 166 kts | 186° |
| 2026-04-27 11:04 | 64.08561 | -22.60533 | 2082 ft | 154 kts | 179° |
| 2026-04-27 11:04 | 64.07523 | -22.60536 | 1882 ft | 143 kts | 179° |
| 2026-04-27 11:04 | 64.06574 | -22.60539 | 1712 ft | 131 kts | 178° |
| 2026-04-27 11:04 | 64.05687 | -22.60539 | 1529 ft | 126 kts | 178° |
| 2026-04-27 11:05 | 64.04817 | -22.60540 | 1356 ft | 124 kts | 178° |
| 2026-04-27 11:05 | 64.03970 | -22.60540 | 1188 ft | 122 kts | 178° |
| 2026-04-27 11:05 | 64.03118 | -22.60541 | 1017 ft | 122 kts | 178° |
| 2026-04-27 11:05 | 64.02268 | -22.60541 | 844 ft | 121 kts | 177° |
| 2026-04-27 11:06 | 64.01432 | -22.60542 | 672 ft | 122 kts | 178° |
| 2026-04-27 11:06 | 64.00584 | -22.60543 | 497 ft | 122 kts | 179° |
| 2026-04-27 11:06 | 63.99734 | -22.60543 | 334 ft | 120 kts | 178° |
| 2026-04-27 11:06 | 63.98914 | -22.60550 | 177 ft | 115 kts | 178° |
| 2026-04-27 11:07 | 63.98275 | -22.60538 | 174 ft | 65 kts | 180° |
| 2026-04-27 11:07 | 63.97935 | -22.60539 | 170 ft | 41 kts | 180° |
| 2026-04-27 11:07 | 63.97664 | -22.60541 | 173 ft | 41 kts | 181° |
| 2026-04-27 11:07 | 63.97457 | -22.60581 | 172 ft | 13 kts | 226° |
| 2026-04-27 11:08 | 63.97440 | -22.60768 | 168 ft | 13 kts | 285° |
| 2026-04-27 11:08 | 63.97473 | -22.60936 | 166 ft | 10 kts | 328° |
| 2026-04-27 11:08 | 63.97533 | -22.60941 | 166 ft | 9 kts | 0° |
| 2026-04-27 11:08 | 63.97607 | -22.60940 | 168 ft | 13 kts | 0° |
| 2026-04-27 11:09 | 63.97727 | -22.60940 | 169 ft | 23 kts | 360° |
| 2026-04-27 11:09 | 63.97934 | -22.60939 | 169 ft | 36 kts | 0° |
| 2026-04-27 11:09 | 63.98201 | -22.60936 | 165 ft | 39 kts | 0° |
| 2026-04-27 11:09 | 63.98470 | -22.60935 | 167 ft | 39 kts | 359° |
| 2026-04-27 11:10 | 63.98747 | -22.60938 | 163 ft | 40 kts | 0° |
| 2026-04-27 11:10 | 63.99003 | -22.60938 | 168 ft | 24 kts | 359° |
| 2026-04-27 11:10 | 63.99134 | -22.60938 | 163 ft | 12 kts | 359° |
| 2026-04-27 11:10 | 63.99174 | -22.61077 | 159 ft | 12 kts | 270° |
| 2026-04-27 11:11 | 63.99173 | -22.61274 | 154 ft | 13 kts | 270° |
| 2026-04-27 11:11 | 63.99174 | -22.61477 | 154 ft | 13 kts | 270° |
| 2026-04-27 11:11 | 63.99173 | -22.61731 | 145 ft | 19 kts | 269° |
| 2026-04-27 11:11 | 63.99187 | -22.61978 | 141 ft | 11 kts | 331° |
| 2026-04-27 11:12 | 63.99236 | -22.62017 | 140 ft | 5 kts | 295° |
| 2026-04-27 11:12 | 63.99240 | -22.62100 | 141 ft | 5 kts | 289° |
| 2026-04-27 11:12 | 63.99269 | -22.62167 | 141 ft | 6 kts | 316° |
| 2026-04-27 11:12 | 63.99281 | -22.62192 | 141 ft | 1 kts | 316° |
| 2026-04-27 11:13 | 63.99283 | -22.62198 | 141 ft | 0 kts | 316° |